Time;durP1;ratioP1;P1;durP2;ratioP2;P2;SDS_P1;SDS_P2;PMS_P1;PMS_P2;Temp;Humidity;BMP_temperature;BMP_pressure;BME280_temperature;BME280_humidity;BME280_pressure;Samples;Min_cycle;Max_cycle;Signal;HPM_P1;HPM_P2
2024/01/09 00:02:16;;;;;;;;;;;-2.00;99.90;;;;;;5053007;28;19961;-78
2024/01/09 00:04:41;;;;;;;;;;;-2.00;99.90;;;;;;5069985;28;19959;-78
2024/01/09 00:07:07;;;;;;;;;;;-2.00;99.90;;;;;;5071442;28;20376;-78
2024/01/09 00:09:35;;;;;;;;;;;-1.90;99.90;;;;;;5068728;28;20285;-78
2024/01/09 00:12:01;;;;;;;;;;;-1.80;99.90;;;;;;5070781;28;19954;-79
2024/01/09 00:14:26;;;;;;;;;;;-1.80;99.90;;;;;;5067939;28;19916;-78
2024/01/09 00:16:52;;;;;;;;;;;-1.70;99.90;;;;;;5069564;28;20066;-78
2024/01/09 00:19:17;;;;;;;;;;;-1.70;99.90;;;;;;5041846;28;19919;-78
2024/01/09 00:21:46;;;;;;;;;;;-1.70;99.90;;;;;;5071290;28;19915;-78
2024/01/09 00:24:11;;;;;;;;;;;-1.70;99.90;;;;;;5051746;28;20283;-78
2024/01/09 00:26:43;;;;;;;;;;;-1.60;99.90;;;;;;5071661;28;19904;-78
2024/01/09 00:29:08;;;;;;;;;;;-1.50;99.90;;;;;;5070335;28;19938;-78
2024/01/09 00:31:34;;;;;;;;;;;-1.50;99.90;;;;;;5069650;28;20387;-78
2024/01/09 00:33:59;;;;;;;;;;;-1.50;99.90;;;;;;5070732;28;19916;-78
2024/01/09 00:36:25;;;;;;;;;;;-1.40;99.90;;;;;;5070800;28;19912;-78
2024/01/09 00:38:50;;;;;;;;;;;-1.40;99.90;;;;;;5067987;28;20009;-78
2024/01/09 00:41:16;;;;;;;;;;;-1.40;99.90;;;;;;5068739;28;19908;-78
2024/01/09 00:43:41;;;;;;;;;;;-1.20;99.90;;;;;;5051487;28;19908;-78
2024/01/09 00:46:07;;;;;;;;;;;-1.20;99.90;;;;;;5065200;28;19908;-78
2024/01/09 00:48:32;;;;;;;;;;;-1.30;99.90;;;;;;5070341;28;19915;-78
2024/01/09 00:50:58;;;;;;;;;;;-1.20;99.90;;;;;;5069988;28;19908;-78
2024/01/09 00:53:23;;;;;;;;;;;-1.20;99.90;;;;;;5065972;28;19912;-78
2024/01/09 00:55:49;;;;;;;;;;;-1.20;99.90;;;;;;5051165;28;19920;-78
2024/01/09 00:58:14;;;;;;;;;;;-1.20;99.90;;;;;;5055250;28;19913;-78
2024/01/09 01:00:40;;;;;;;0.60;0.60;;;-1.10;99.90;;;;;;5069176;28;20345;-78
2024/01/09 01:03:05;;;;;;;0.50;0.50;;;-1.10;99.90;;;;;;5068180;28;20213;-78
2024/01/09 01:05:33;;;;;;;0.50;0.50;;;-1.10;99.90;;;;;;5068737;28;20181;-78
2024/01/09 01:07:58;;;;;;;;;;;-1.10;99.90;;;;;;5068408;28;20157;-77
2024/01/09 01:10:24;;;;;;;0.50;0.50;;;-1.10;99.90;;;;;;5070242;28;19973;-78
2024/01/09 01:12:49;;;;;;;0.50;0.50;;;-1.10;99.90;;;;;;5064314;28;20680;-78
2024/01/09 01:15:16;;;;;;;0.40;0.40;;;-1.10;99.90;;;;;;5061505;28;20713;-78
2024/01/09 01:17:42;;;;;;;0.50;0.50;;;-1.10;99.90;;;;;;5051877;28;20208;-78
2024/01/09 01:20:08;;;;;;;0.53;0.53;;;-1.10;99.90;;;;;;5069354;28;20225;-78
2024/01/09 01:22:33;;;;;;;;;;;-1.10;99.90;;;;;;5058940;28;20216;-78
2024/01/09 01:24:59;;;;;;;;;;;-1.00;99.90;;;;;;5057229;28;19912;-78
2024/01/09 01:27:24;;;;;;;;;;;-1.00;99.90;;;;;;5069441;28;19958;-78
2024/01/09 01:29:50;;;;;;;0.60;0.60;;;-1.00;99.90;;;;;;5066306;28;20288;-78
2024/01/09 01:32:15;;;;;;;0.50;0.50;;;-1.00;99.90;;;;;;5064006;28;20189;-78
2024/01/09 01:34:41;;;;;;;;;;;-1.00;99.90;;;;;;5069392;28;20538;-78
2024/01/09 01:37:06;;;;;;;;;;;-1.00;99.90;;;;;;5066101;28;19945;-78
2024/01/09 01:39:32;;;;;;;;;;;-1.00;99.90;;;;;;5069444;28;20347;-78
2024/01/09 01:41:57;;;;;;;;;;;-1.00;99.90;;;;;;5069146;28;19943;-78
2024/01/09 01:44:23;;;;;;;;;;;-1.00;99.90;;;;;;5070307;28;20675;-78
2024/01/09 01:46:49;;;;;;;;;;;-1.00;99.90;;;;;;5062836;28;19912;-78
2024/01/09 01:49:16;;;;;;;;;;;-1.10;99.90;;;;;;5069888;28;19916;-78
2024/01/09 01:51:42;;;;;;;;;;;-1.10;99.90;;;;;;5063245;28;20434;-78
2024/01/09 01:54:08;;;;;;;;;;;-1.20;99.90;;;;;;5069611;28;20385;-78
2024/01/09 01:56:34;;;;;;;;;;;-1.20;99.90;;;;;;5061225;28;19920;-78
2024/01/09 01:59:00;;;;;;;;;;;-1.30;99.90;;;;;;5069208;28;20368;-78
2024/01/09 02:01:25;;;;;;;;;;;-1.30;99.90;;;;;;5067832;28;19923;-78
2024/01/09 02:03:51;;;;;;;;;;;-1.20;99.90;;;;;;5048814;28;20288;-78
2024/01/09 02:06:17;;;;;;;;;;;-1.20;99.90;;;;;;5068934;28;19912;-78
2024/01/09 02:08:43;;;;;;;;;;;-1.30;99.90;;;;;;5065463;28;19920;-78
2024/01/09 02:11:09;;;;;;;;;;;-1.30;99.90;;;;;;5069148;28;19917;-77
2024/01/09 02:13:35;;;;;;;;;;;-1.20;99.90;;;;;;5068994;28;19917;-77
2024/01/09 02:16:00;;;;;;;;;;;-1.20;99.90;;;;;;5053212;28;19995;-78
2024/01/09 02:18:26;;;;;;;;;;;-1.10;99.90;;;;;;5054516;28;20007;-78
2024/01/09 02:20:52;;;;;;;;;;;-1.10;99.90;;;;;;5054152;28;19908;-78
2024/01/09 02:23:17;;;;;;;;;;;-1.10;99.90;;;;;;5055149;28;19919;-78
2024/01/09 02:25:43;;;;;;;;;;;-1.10;99.90;;;;;;5055067;28;20247;-78
2024/01/09 02:28:09;;;;;;;;;;;-1.00;99.90;;;;;;5073670;28;20391;-78
2024/01/09 02:30:35;;;;;;;;;;;-1.00;99.90;;;;;;5072587;28;20180;-78
2024/01/09 02:33:02;;;;;;;;;;;-1.00;99.90;;;;;;5069349;28;20080;-77
2024/01/09 02:35:27;;;;;;;;;;;-1.00;99.90;;;;;;5072187;28;20336;-78
2024/01/09 02:37:53;;;;;;;;;;;-0.90;99.90;;;;;;5072098;28;20000;-78
2024/01/09 02:40:18;;;;;;;;;;;-0.90;99.90;;;;;;5072929;28;19915;-78
2024/01/09 02:42:43;;;;;;;;;;;-0.90;99.90;;;;;;5073299;28;19944;-77
2024/01/09 02:45:10;;;;;;;;;;;-1.00;99.90;;;;;;5071535;28;19916;-78
2024/01/09 02:47:35;;;;;;;;;;;-0.90;99.90;;;;;;5068814;28;19919;-78
2024/01/09 02:50:01;;;;;;;;;;;-1.00;99.90;;;;;;5073148;28;19908;-78
2024/01/09 02:52:26;;;;;;;;;;;-0.90;99.90;;;;;;5066362;28;19915;-77
2024/01/09 02:54:51;;;;;;;;;;;-0.90;99.90;;;;;;5073119;28;19928;-77
2024/01/09 02:57:17;;;;;;;;;;;-0.90;99.90;;;;;;5072533;28;19919;-78
2024/01/09 02:59:42;;;;;;;;;;;-0.90;99.90;;;;;;5071475;28;20053;-78
2024/01/09 03:02:08;;;;;;;;;;;-0.80;99.90;;;;;;5072656;28;20364;-78
2024/01/09 03:04:33;;;;;;;;;;;-0.90;99.90;;;;;;5054764;28;20506;-78
2024/01/09 03:06:59;;;;;;;;;;;-0.90;99.90;;;;;;5053577;28;19912;-78
2024/01/09 03:09:25;;;;;;;;;;;-0.90;99.90;;;;;;5071345;28;20615;-78
2024/01/09 03:11:51;;;;;;;;;;;-0.90;99.90;;;;;;5054531;28;19910;-77
2024/01/09 03:14:16;;;;;;;;;;;-0.90;99.90;;;;;;5072020;28;19923;-78
2024/01/09 03:16:45;;;;;;;;;;;-0.90;99.90;;;;;;5071954;28;19952;-78
2024/01/09 03:19:11;;;;;;;;;;;-0.90;99.90;;;;;;5053576;28;20007;-77
2024/01/09 03:21:36;;;;;;;;;;;-1.00;99.90;;;;;;5071984;28;20070;-78
2024/01/09 03:24:02;;;;;;;;;;;-0.90;99.90;;;;;;5072153;28;19981;-78
2024/01/09 03:26:27;;;;;;;;;;;-0.90;99.90;;;;;;5061373;28;20002;-78
2024/01/09 03:28:53;;;;;;;;;;;-0.90;99.90;;;;;;5068731;28;19977;-78
2024/01/09 03:31:21;;;;;;;;;;;-0.90;99.90;;;;;;5071231;28;19912;-78
2024/01/09 03:33:47;;;;;;;;;;;-1.00;99.90;;;;;;5052519;28;19915;-77
2024/01/09 03:36:13;;;;;;;;;;;-1.00;99.90;;;;;;5053705;28;20015;-78
2024/01/09 03:38:38;;;;;;;;;;;-1.00;99.90;;;;;;5053299;28;20365;-78
2024/01/09 03:41:04;;;;;;;;;;;-1.10;99.90;;;;;;5071531;28;19958;-77
2024/01/09 03:43:29;;;;;;;;;;;-1.10;99.90;;;;;;5057589;28;20034;-78
2024/01/09 03:45:56;;;;;;;;;;;-1.00;99.90;;;;;;5052014;28;19912;-78
2024/01/09 03:48:22;;;;;;;;;;;-1.00;99.90;;;;;;5071527;28;19973;-78
2024/01/09 03:50:47;;;;;;;;;;;-1.00;99.90;;;;;;5071417;28;20334;-77
2024/01/09 03:53:13;;;;;;;;;;;-1.00;99.90;;;;;;5071274;28;19916;-78
2024/01/09 03:55:39;;;;;;;;;;;-1.00;99.90;;;;;;5071547;28;19920;-78
2024/01/09 03:58:04;;;;;;;;;;;-1.00;99.90;;;;;;5071004;28;19995;-77
2024/01/09 04:00:30;;;;;;;;;;;-1.10;99.90;;;;;;5065996;28;20292;-78
2024/01/09 04:02:55;;;;;;;;;;;-1.10;99.90;;;;;;5070873;28;19999;-77
2024/01/09 04:05:20;;;;;;;;;;;-1.20;99.90;;;;;;5052101;28;19947;-78
2024/01/09 04:07:46;;;;;;;;;;;-1.20;99.90;;;;;;5062143;28;20361;-77
2024/01/09 04:10:11;;;;;;;;;;;-1.30;99.90;;;;;;5069005;28;20385;-78
2024/01/09 04:12:37;;;;;;;;;;;-1.40;99.90;;;;;;5069361;28;19916;-78
2024/01/09 04:15:02;;;;;;;;;;;-1.50;99.90;;;;;;5066344;28;19920;-78
2024/01/09 04:17:28;;;;;;;;;;;-1.40;99.90;;;;;;5060657;28;19912;-77
2024/01/09 04:19:54;;;;;;;;;;;-1.30;99.90;;;;;;5070208;28;19909;-77
2024/01/09 04:22:19;;;;;;;;;;;-1.30;99.90;;;;;;5070988;28;20284;-77
2024/01/09 04:24:45;;;;;;;;;;;-1.40;99.90;;;;;;5049931;28;20280;-78
2024/01/09 04:27:10;;;;;;;;;;;-1.40;99.90;;;;;;5070583;28;20288;-77
2024/01/09 04:29:35;;;;;;;;;;;-1.40;99.90;;;;;;5070862;28;19905;-77
2024/01/09 04:32:01;;;;;;;;;;;-1.40;99.90;;;;;;5067411;28;19909;-77
2024/01/09 04:34:26;;;;;;;;;;;-1.40;99.90;;;;;;5069947;28;19922;-78
2024/01/09 04:36:52;;;;;;;;;;;-1.40;99.90;;;;;;5069252;28;20322;-78
2024/01/09 04:39:17;;;;;;;;;;;-1.40;99.90;;;;;;5070156;28;20535;-77
2024/01/09 04:41:43;;;;;;;;;;;-1.50;99.90;;;;;;5071024;28;19908;-78
2024/01/09 04:44:08;;;;;;;;;;;-1.60;99.90;;;;;;5070613;28;19954;-77
2024/01/09 04:46:33;;;;;;;;;;;-1.60;99.90;;;;;;5067739;28;19912;-77
2024/01/09 04:48:59;;;;;;;;;;;-1.50;99.90;;;;;;5067377;28;19916;-77
2024/01/09 04:51:24;;;;;;;;;;;-1.50;99.90;;;;;;5070369;28;20627;-77
2024/01/09 04:53:50;;;;;;;;;;;-1.50;99.90;;;;;;5070431;28;19916;-77
2024/01/09 04:56:15;;;;;;;;;;;-1.50;99.90;;;;;;5070668;28;20380;-77
2024/01/09 04:58:41;;;;;;;;;;;-1.60;99.90;;;;;;5070231;28;20380;-78
2024/01/09 05:01:10;;;;;;;;;;;-1.50;99.90;;;;;;5049628;28;19909;-78
2024/01/09 05:03:36;;;;;;;;;;;-1.60;99.90;;;;;;5070726;28;19966;-77
2024/01/09 05:06:02;;;;;;;;;;;-1.70;99.90;;;;;;5052386;28;20373;-78
2024/01/09 05:08:27;;;;;;;;;;;-1.70;99.90;;;;;;5068112;28;19939;-77
2024/01/09 05:10:53;;;;;;;;;;;-1.70;99.90;;;;;;5069412;28;19931;-78
2024/01/09 05:13:18;;;;;;;;;;;-1.80;99.90;;;;;;5069268;28;19965;-78
2024/01/09 05:15:43;;;;;;;;;;;-1.70;99.90;;;;;;5069804;28;20384;-78
2024/01/09 05:18:09;;;;;;;;;;;-1.80;99.90;;;;;;5068134;28;19959;-78
2024/01/09 05:20:34;;;;;;;;;;;-1.70;99.90;;;;;;5069644;28;19919;-77
2024/01/09 05:23:00;;;;;;;;;;;-1.70;99.90;;;;;;5069810;28;19913;-77
2024/01/09 05:25:25;;;;;;;;;;;-1.80;99.90;;;;;;5069995;28;20320;-77
2024/01/09 05:27:51;;;;;;;;;;;-1.70;99.90;;;;;;5069615;28;20022;-77
2024/01/09 05:30:16;;;;;;;;;;;-1.60;99.90;;;;;;5068304;28;19915;-77
2024/01/09 05:32:41;;;;;;;;;;;-1.70;99.90;;;;;;5052671;28;19915;-78
2024/01/09 05:35:08;;;;;;;;;;;-1.70;99.90;;;;;;5065954;28;19922;-78
2024/01/09 05:37:33;;;;;;;;;;;-1.80;99.90;;;;;;5069455;28;19905;-78
2024/01/09 05:39:59;;;;;;;;;;;-1.80;99.90;;;;;;5051521;28;20253;-77
2024/01/09 05:42:24;;;;;;;;;;;-1.80;99.90;;;;;;5052324;28;19908;-78
2024/01/09 05:44:50;;;;;;;;;;;-1.90;99.90;;;;;;5069777;28;20017;-78
2024/01/09 05:47:15;;;;;;;;;;;-1.90;99.90;;;;;;5062183;28;19909;-77
2024/01/09 05:49:40;;;;;;;;;;;-1.90;99.90;;;;;;5068662;28;19911;-77
2024/01/09 05:52:06;;;;;;;;;;;-1.90;99.90;;;;;;5054082;28;19915;-78
2024/01/09 05:54:31;;;;;;;;;;;-1.90;99.90;;;;;;5073324;28;19955;-77
2024/01/09 05:56:57;;;;;;;;;;;-1.90;99.90;;;;;;5054639;28;19995;-77
2024/01/09 05:59:22;;;;;;;;;;;-1.90;99.90;;;;;;5071997;28;19958;-78
2024/01/09 06:01:48;;;;;;;;;;;-2.00;99.90;;;;;;5071832;28;19909;-78
2024/01/09 06:04:13;;;;;;;;;;;-1.90;99.90;;;;;;5069253;28;19908;-77
2024/01/09 06:06:39;;;;;;;;;;;-1.90;99.90;;;;;;5069384;28;19916;-77
2024/01/09 06:09:04;;;;;;;;;;;-2.00;99.90;;;;;;5051954;28;20254;-77
2024/01/09 06:11:30;;;;;;;;;;;-1.90;99.90;;;;;;5073688;28;19916;-78
2024/01/09 06:13:55;;;;;;;;;;;-2.10;99.90;;;;;;5066790;28;19913;-78
2024/01/09 06:16:21;;;;;;;;;;;-2.10;99.90;;;;;;5069593;28;20323;-78
2024/01/09 06:18:47;;;;;;;;;;;-2.10;99.90;;;;;;5055553;28;19915;-77
2024/01/09 06:21:12;;;;;;;;;;;-2.10;99.90;;;;;;5054711;28;19908;-77
2024/01/09 06:23:38;;;;;;;;;;;-2.10;99.90;;;;;;5052589;28;19912;-77
2024/01/09 06:26:05;;;;;;;;;;;-2.20;99.90;;;;;;5071600;28;20388;-77
2024/01/09 06:28:31;;;;;;;;;;;-2.10;99.90;;;;;;5052904;28;19912;-78
2024/01/09 06:30:56;;;;;;;;;;;-2.10;99.90;;;;;;5053835;28;20286;-78
2024/01/09 06:33:22;;;;;;;;;;;-2.00;99.90;;;;;;5065382;28;20380;-78
2024/01/09 06:35:47;;;;;;;;;;;-2.00;99.90;;;;;;5069145;28;19937;-77
2024/01/09 06:38:13;;;;;;;;;;;-2.20;99.90;;;;;;5054825;28;19915;-77
2024/01/09 06:40:39;;;;;;;;;;;-2.30;99.90;;;;;;5055152;28;20028;-77
2024/01/09 06:43:05;;;;;;;;;;;-2.30;99.90;;;;;;5073495;28;19969;-77
2024/01/09 06:45:31;;;;;;;;;;;-2.40;99.90;;;;;;5071215;28;19908;-77
2024/01/09 06:47:57;;;;;;;;;;;-2.30;99.90;;;;;;5053839;28;19915;-77
2024/01/09 06:50:22;;;;;;;;;;;-2.30;99.90;;;;;;5054729;28;19904;-77
2024/01/09 06:52:48;;;;;;;;;;;-2.50;99.90;;;;;;5070042;28;19914;-77
2024/01/09 06:55:13;;;;;;;;;;;-2.70;99.90;;;;;;5052270;28;19913;-77
2024/01/09 06:57:39;;;;;;;;;;;-2.70;99.90;;;;;;5064333;28;20541;-77
2024/01/09 07:00:05;;;;;;;;;;;-2.80;99.90;;;;;;5049198;28;20049;-77
2024/01/09 07:02:30;;;;;;;;;;;-2.80;99.90;;;;;;5041858;28;19920;-78
2024/01/09 07:04:56;;;;;;;;;;;-2.90;99.90;;;;;;5068793;28;20595;-78
2024/01/09 07:07:22;;;;;;;;;;;-3.10;99.90;;;;;;5065706;28;19931;-78
2024/01/09 07:09:47;;;;;;;;;;;-3.10;99.90;;;;;;5069140;28;19920;-78
2024/01/09 07:12:16;;;;;;;;;;;-3.00;99.90;;;;;;5068804;28;19914;-78
2024/01/09 07:14:42;;;;;;;;;;;-3.00;99.90;;;;;;5070606;28;20292;-77
2024/01/09 07:17:07;;;;;;;;;;;-3.00;99.90;;;;;;5068196;28;19915;-77
2024/01/09 07:19:33;;;;;;;;;;;-2.90;99.90;;;;;;5051715;28;19916;-77
2024/01/09 07:21:58;;;;;;;;;;;-3.00;99.90;;;;;;5070022;28;19974;-77
2024/01/09 07:24:24;;;;;;;;;;;-3.00;99.90;;;;;;5071441;28;19912;-77
2024/01/09 07:26:50;;;;;;;;;;;-3.00;99.90;;;;;;5070590;28;19912;-77
2024/01/09 07:29:17;;;;;;;;;;;-3.00;99.90;;;;;;5071251;28;20466;-77
2024/01/09 07:31:43;;;;;;;;;;;-3.10;99.90;;;;;;5053075;28;19978;-77
2024/01/09 07:34:09;;;;;;;;;;;-3.20;99.90;;;;;;5066694;28;19920;-77
2024/01/09 07:36:34;;;;;;;;;;;-3.30;99.90;;;;;;5069820;28;19923;-77
2024/01/09 07:39:00;;;;;;;;;;;-3.40;99.90;;;;;;5068945;28;19967;-77
2024/01/09 07:41:25;;;;;;;;;;;-3.40;99.90;;;;;;5051687;28;19931;-77
2024/01/09 07:43:51;;;;;;;;;;;-3.30;99.90;;;;;;5051759;28;19908;-77
2024/01/09 07:46:17;;;;;;;;;;;-3.20;99.90;;;;;;5067687;28;20382;-77
2024/01/09 07:48:43;;;;;;;;;;;-3.30;99.90;;;;;;5070375;28;20373;-77
2024/01/09 07:51:08;;;;;;;;;;;-3.40;99.90;;;;;;5069972;28;19939;-77
2024/01/09 07:53:34;;;;;;;;;;;-3.60;99.90;;;;;;5070261;28;19912;-77
2024/01/09 07:56:00;;;;;;;;;;;-3.60;99.90;;;;;;5069611;28;20397;-78
2024/01/09 07:58:25;;;;;;;;;;;-3.50;99.90;;;;;;5067806;28;19999;-77
2024/01/09 08:00:54;;;;;;;;;;;-3.30;99.90;;;;;;5051059;28;20337;-78
2024/01/09 08:03:19;;;;;;;;;;;-3.00;99.90;;;;;;5061417;28;19912;-77
2024/01/09 08:05:45;;;;;;;;;;;-3.00;99.90;;;;;;5070324;28;19919;-77
2024/01/09 08:08:10;;;;;;;;;;;-3.00;99.90;;;;;;5041666;28;19919;-77
2024/01/09 08:10:35;;;;;;;;;;;-3.30;99.90;;;;;;5067990;28;20408;-77
2024/01/09 08:13:01;;;;;;;;;;;-3.20;99.90;;;;;;5068982;28;19908;-77
2024/01/09 08:15:29;;;;;;;;;;;-3.20;99.90;;;;;;5066571;28;19960;-77
2024/01/09 08:17:54;;;;;;;;;;;-3.20;99.90;;;;;;5051312;28;20008;-77
2024/01/09 08:20:21;;;;;;;;;;;-3.20;99.90;;;;;;5067683;28;20039;-78
2024/01/09 08:22:48;;;;;;;;;;;-3.20;99.90;;;;;;5068667;28;20337;-77
2024/01/09 08:25:13;;;;;;;;;;;-3.20;99.90;;;;;;5050292;28;19920;-78
2024/01/09 08:27:39;;;;;;;;;;;-3.00;99.90;;;;;;5068355;28;20321;-77
2024/01/09 08:30:05;;;;;;;;;;;-2.90;99.90;;;;;;5066175;28;20328;-78
2024/01/09 08:32:30;;;;;;;;;;;-2.70;99.90;;;;;;5048394;28;20313;-78
2024/01/09 08:34:56;;;;;;;;;;;-2.90;99.90;;;;;;5068941;28;20027;-77
2024/01/09 08:37:22;;;;;;;;;;;-2.70;99.90;;;;;;5050640;28;20368;-77
2024/01/09 08:39:47;;;;;;;;;;;-2.60;99.90;;;;;;5070558;28;19923;-77
2024/01/09 08:42:24;;;;;;;;;;;-2.60;99.90;;;;;;5065507;28;19912;-77
2024/01/09 08:44:50;;;;;;;;;;;-2.60;99.90;;;;;;5066565;28;19925;-76
2024/01/09 08:47:16;;;;;;;;;;;-2.50;99.90;;;;;;5068634;28;20314;-77
2024/01/09 08:49:47;;;;;;;;;;;-2.40;99.90;;;;;;5062588;28;19909;-77
2024/01/09 08:52:12;;;;;;;;;;;-2.30;99.90;;;;;;5055806;28;19908;-77
2024/01/09 08:54:38;;;;;;;;;;;-2.10;99.90;;;;;;5051356;28;19923;-77
2024/01/09 08:57:05;;;;;;;;;;;-2.00;99.90;;;;;;5049226;28;19912;-77
2024/01/09 08:59:30;;;;;;;;;;;-1.90;99.90;;;;;;5067827;28;20027;-77
2024/01/09 09:01:56;;;;;;;;;;;-1.80;99.90;;;;;;5066111;28;20350;-77
2024/01/09 09:04:21;;;;;;;;;;;-1.60;99.90;;;;;;5067331;28;19922;-76
2024/01/09 09:06:47;;;;;;;;;;;-1.30;99.90;;;;;;5048458;28;19954;-77
2024/01/09 09:09:12;;;;;;;;;;;-1.20;99.90;;;;;;5065831;28;19923;-78
2024/01/09 09:11:38;;;;;;;;;;;-1.20;99.90;;;;;;5068491;28;19962;-78
2024/01/09 09:14:04;;;;;;;;;;;-1.10;99.90;;;;;;5064009;28;20373;-78
2024/01/09 09:16:29;;;;;;;;;;;-1.20;99.90;;;;;;5050707;28;19920;-77
2024/01/09 09:18:55;;;;;;;;;;;-1.00;99.90;;;;;;5069690;28;19919;-78
2024/01/09 09:21:20;;;;;;;;;;;-1.00;99.90;;;;;;5068580;28;19912;-78
2024/01/09 09:23:47;;;;;;;;;;;-0.90;99.90;;;;;;5068934;28;19908;-78
2024/01/09 09:26:12;;;;;;;;;;;-0.80;99.90;;;;;;5068461;28;20347;-78
2024/01/09 09:28:38;;;;;;;;;;;-0.60;99.90;;;;;;5061867;28;19916;-78
2024/01/09 09:31:04;;;;;;;;;;;-0.50;99.90;;;;;;5065938;28;19909;-78
2024/01/09 09:33:31;;;;;;;;;;;-0.50;99.90;;;;;;5049192;28;19962;-78
2024/01/09 09:35:57;;;;;;;;;;;-0.50;99.90;;;;;;5068476;28;20387;-77
2024/01/09 09:38:24;;;;;;;;;;;-0.50;99.90;;;;;;5049787;28;19908;-76
2024/01/09 09:40:50;;;;;;;;;;;-0.50;99.90;;;;;;5070118;28;19947;-77
2024/01/09 09:43:21;;;;;;;;;;;-0.60;99.90;;;;;;5067199;28;19919;-77
2024/01/09 09:45:48;;;;;;;;;;;-0.60;99.90;;;;;;5047068;28;19958;-78
2024/01/09 09:48:16;;;;;;;;;;;-0.60;99.90;;;;;;5063896;28;19920;-77
2024/01/09 09:50:42;;;;;;;;;;;-0.40;99.90;;;;;;5065670;28;19973;-78
2024/01/09 09:53:08;;;;;;;;;;;-0.40;99.90;;;;;;5050143;28;20356;-78
2024/01/09 09:55:35;;;;;;;;;;;-0.50;99.90;;;;;;5048553;28;19959;-77
2024/01/09 09:58:00;;;;;;;;;;;-0.60;99.90;;;;;;5069012;28;20011;-78
2024/01/09 10:00:26;;;;;;;;;;;-0.60;99.90;;;;;;5068365;28;20004;-77
2024/01/09 10:02:53;;;;;;;;;;;-0.70;99.90;;;;;;5064585;28;19931;-77
2024/01/09 10:05:19;;;;;;;;;;;-0.60;99.90;;;;;;5049655;28;19908;-78
2024/01/09 10:07:46;;;;;;;;;;;-0.60;99.90;;;;;;5062712;28;20435;-77
2024/01/09 10:10:11;;;;;;;;;;;-0.80;99.90;;;;;;5067169;28;19916;-77
2024/01/09 10:12:37;;;;;;;;;;;-0.80;99.90;;;;;;5067195;28;19919;-78
2024/01/09 10:15:08;;;;;;;;;;;-0.90;99.90;;;;;;5068755;28;20570;-78
2024/01/09 10:17:34;;;;;;;;;;;-0.70;99.90;;;;;;5065718;28;19938;-78
2024/01/09 10:20:00;;;;;;;;;;;-0.50;99.90;;;;;;5068980;28;19908;-79
2024/01/09 10:22:29;;;;;;;;;;;-0.60;99.90;;;;;;5064946;28;19934;-78
2024/01/09 10:24:55;;;;;;;;;;;-0.20;99.90;;;;;;5050762;28;20102;-78
2024/01/09 10:27:21;;;;;;;;;;;0.10;99.90;;;;;;5067418;28;20013;-78
2024/01/09 10:29:46;;;;;;;;;;;0.00;99.90;;;;;;5066787;28;19951;-78
2024/01/09 10:32:17;;;;;;;;;;;-0.10;99.90;;;;;;5068617;28;19920;-78
2024/01/09 10:34:43;;;;;;;;;;;0.30;99.90;;;;;;5065368;28;20353;-78
2024/01/09 10:37:09;;;;;;;;;;;0.40;99.90;;;;;;5072558;28;19912;-78
2024/01/09 10:39:34;;;;;;;;;;;0.50;99.90;;;;;;5073116;28;19915;-78
2024/01/09 10:42:18;;;;;;;;;;;0.60;99.90;;;;;;5067755;28;19958;-78
2024/01/09 10:44:47;;;;;;;;;;;1.50;99.90;;;;;;5072081;28;19983;-78
2024/01/09 10:47:14;;;;;;;;;;;2.20;99.90;;;;;;5061304;28;20026;-79
2024/01/09 10:49:40;;;;;;;;;;;2.70;99.90;;;;;;5071823;28;19971;-79
2024/01/09 10:52:11;;;;;;;;;;;3.00;99.90;;;;;;5051926;28;20292;-79
2024/01/09 10:54:37;;;;;;;;;;;2.70;99.90;;;;;;5070812;28;20096;-78
2024/01/09 10:57:04;;;;;;;;;;;2.80;99.90;;;;;;5055100;28;19923;-78
2024/01/09 10:59:30;;;;;;;;;;;2.80;99.90;;;;;;5072282;28;19934;-78
2024/01/09 11:01:56;;;;;;;;;;;2.80;99.90;;;;;;5072124;28;19912;-78
2024/01/09 11:04:21;;;;;;;;;;;2.30;99.90;;;;;;5071582;28;19919;-78
2024/01/09 11:06:47;;;;;;;;;;;2.60;99.90;;;;;;5070959;28;19908;-79
2024/01/09 11:09:15;;;;;;;;;;;2.70;99.90;;;;;;5051725;28;19924;-78
2024/01/09 11:11:42;;;;;;;;;;;2.70;99.90;;;;;;5072391;28;19916;-78
2024/01/09 11:14:09;;;;;;;;;;;2.70;99.90;;;;;;5071255;28;20273;-78
2024/01/09 11:16:36;;;;;;;;;;;2.30;99.90;;;;;;5071346;28;19916;-79
2024/01/09 11:19:02;;;;;;;;;;;2.30;99.90;;;;;;5072138;28;19909;-78
2024/01/09 11:21:28;;;;;;;;;;;2.20;99.90;;;;;;5067965;28;19916;-84
2024/01/09 11:23:57;;;;;;;;;;;2.40;99.90;;;;;;5051475;28;19913;-83
2024/01/09 11:26:27;;;;;;;;;;;2.60;99.90;;;;;;5070944;28;20483;-83
2024/01/09 11:28:52;;;;;;;;;;;2.90;99.90;;;;;;5054377;28;19908;-83
2024/01/09 11:31:20;;;;;;;;;;;3.00;99.90;;;;;;5068594;28;19912;-82
2024/01/09 11:33:53;;;;;;;;;;;3.00;99.90;;;;;;5066213;28;19916;-85
2024/01/09 11:36:29;;;;;;;;;;;2.90;99.90;;;;;;5070753;28;19927;-83
2024/01/09 11:38:55;;;;;;;;;;;3.30;99.90;;;;;;5070654;28;19999;-83
2024/01/09 11:41:30;;;;;;;;;;;3.20;99.90;;;;;;5068591;28;20015;-82
2024/01/09 11:44:03;;;;;;;;;;;3.00;99.90;;;;;;5060647;28;19916;-82
2024/01/09 11:46:35;;;;;;;;;;;3.30;99.90;;;;;;5051948;28;19971;-82
2024/01/09 11:49:01;;;;;;;;;;;3.40;99.90;;;;;;5051197;28;19908;-82
2024/01/09 11:51:29;;;;;;;;;;;3.80;99.90;;;;;;5068431;28;19916;-82
2024/01/09 11:53:56;;;;;;;;;;;3.30;99.90;;;;;;5071254;28;19918;-81
2024/01/09 11:56:22;;;;;;;;;;;3.30;99.90;;;;;;5069214;28;19916;-81
2024/01/09 11:58:50;;;;;;;;;;;3.30;99.90;;;;;;5067906;28;19913;-82
2024/01/09 12:01:15;;;;;;;;;;;3.20;99.90;;;;;;5062985;28;19916;-82
2024/01/09 12:03:41;;;;;;;;;;;3.20;99.90;;;;;;5064115;28;20250;-82
2024/01/09 12:06:06;;;;;;;;;;;3.20;99.90;;;;;;5068153;28;19908;-82
2024/01/09 12:08:32;;;;;;;;;;;3.40;99.90;;;;;;5062658;28;19965;-81
2024/01/09 12:10:58;;;;;;;;;;;3.00;99.90;;;;;;5062174;28;20014;-81
2024/01/09 12:13:23;;;;;;;;;;;2.60;99.90;;;;;;5066279;28;20002;-81
2024/01/09 12:15:49;;;;;;;;;;;3.10;99.90;;;;;;5040170;28;19999;-81
2024/01/09 12:18:14;;;;;;;;;;;2.90;99.90;;;;;;5062282;28;20357;-81
2024/01/09 12:20:41;;;;;;;;;;;3.30;99.90;;;;;;5049897;28;19913;-82
2024/01/09 12:23:07;;;;;;;;;;;3.40;99.90;;;;;;5066155;28;19915;-82
2024/01/09 12:25:32;;;;;;;;;;;3.40;99.90;;;;;;5070591;28;20273;-82
2024/01/09 12:27:59;;;;;;;;;;;4.00;99.90;;;;;;5070317;28;19913;-82
2024/01/09 12:30:25;;;;;;;;;;;4.10;99.90;;;;;;5071146;28;19912;-82
2024/01/09 12:32:52;;;;;;;;;;;4.40;99.90;;;;;;5070799;28;20391;-82
2024/01/09 12:35:17;;;;;;;;;;;4.30;99.90;;;;;;5050519;28;19959;-82
2024/01/09 12:37:46;;;;;;;;;;;4.20;99.90;;;;;;5066357;28;19954;-82
2024/01/09 12:40:18;;;;;;;;;;;4.70;99.90;;;;;;5064173;28;19955;-79
2024/01/09 12:42:44;;;;;;;;;;;5.20;99.90;;;;;;5065756;28;19916;-79
2024/01/09 12:45:10;;;;;;;;;;;5.30;99.90;;;;;;5050388;28;19919;-79
2024/01/09 12:47:37;;;;;;;;;;;5.40;99.90;;;;;;5053813;28;20277;-80
2024/01/09 12:50:04;;;;;;;;;;;5.50;99.90;;;;;;5069775;28;19908;-80
2024/01/09 12:52:29;;;;;;;;;;;5.50;99.90;;;;;;5070068;28;19912;-83
2024/01/09 12:54:55;;;;;;;;;;;4.90;99.90;;;;;;5068401;28;19920;-83
2024/01/09 12:57:20;;;;;;;;;;;5.00;99.90;;;;;;5049364;28;19912;-84
2024/01/09 12:59:47;;;;;;;;;;;5.00;99.90;;;;;;5068519;28;20356;-83
2024/01/09 13:02:12;;;;;;;;;;;5.10;99.90;;;;;;5070142;28;20394;-83
2024/01/09 13:04:38;;;;;;;;;;;5.30;99.90;;;;;;5069091;28;19955;-84
2024/01/09 13:07:04;;;;;;;;;;;5.90;99.90;;;;;;5071112;28;19920;-84
2024/01/09 13:09:29;;;;;;;;;;;6.10;99.90;;;;;;5064286;28;19970;-83
2024/01/09 13:11:55;;;;;;;;;;;5.70;99.90;;;;;;5071013;28;20061;-83
2024/01/09 13:14:20;;;;;;;;;;;5.70;99.90;;;;;;5069863;28;19916;-83
2024/01/09 13:16:46;;;;;;;;;;;5.90;99.90;;;;;;5052987;28;19914;-81
2024/01/09 13:19:13;;;;;;;;;;;6.60;99.90;;;;;;5052211;28;19913;-83
2024/01/09 13:21:39;;;;;;;;;;;7.40;99.90;;;;;;5069471;28;19918;-84
2024/01/09 13:24:05;;;;;;;;;;;7.20;99.90;;;;;;5050590;28;19912;-83
2024/01/09 13:26:31;;;;;;;;;;;7.40;99.90;;;;;;5066792;28;19915;-83
2024/01/09 13:28:56;;;;;;;;;;;7.10;99.90;;;;;;5071645;28;19908;-84
2024/01/09 13:31:22;;;;;;;;;;;7.20;99.90;;;;;;5068236;28;19917;-84
2024/01/09 13:33:47;;;;;;;;;;;7.50;99.90;;;;;;5071345;28;19908;-84
2024/01/09 13:36:13;;;;;;;;;;;7.40;99.90;;;;;;5061152;28;19925;-84
2024/01/09 13:38:38;;;;;;;;;;;7.00;99.90;;;;;;5066762;28;20387;-84
2024/01/09 13:41:04;;;;;;;;;;;7.30;99.90;;;;;;5064322;28;19908;-84
2024/01/09 13:43:30;;;;;;;;;;;7.30;99.90;;;;;;5069659;28;19916;-84
2024/01/09 13:45:57;;;;;;;;;;;7.00;99.90;;;;;;5069411;28;19978;-84
2024/01/09 13:48:23;;;;;;;;;;;7.30;99.90;;;;;;5068355;28;19916;-82
2024/01/09 13:50:48;;;;;;;;;;;7.20;99.90;;;;;;5051408;28;19961;-80
2024/01/09 13:53:15;;;;;;;;;;;7.10;99.90;;;;;;5069575;28;19912;-82
2024/01/09 13:55:41;;;;;;;;;;;7.20;99.90;;;;;;5067516;28;20010;-81
2024/01/09 13:58:06;;;;;;;;;;;6.80;99.90;;;;;;5043605;28;19913;-81
2024/01/09 14:00:32;;;;;;;;;;;6.80;99.90;;;;;;5060535;28;20356;-81
2024/01/09 14:02:59;;;;;;;;;;;6.70;99.90;;;;;;5066116;28;19912;-83
2024/01/09 14:05:25;;;;;;;;;;;6.50;99.90;;;;;;5064886;28;20349;-82
2024/01/09 14:07:51;;;;;;;;;;;6.80;99.90;;;;;;5048098;28;19919;-82
2024/01/09 14:10:16;;;;;;;;;;;7.20;99.90;;;;;;5044337;28;19920;-82
2024/01/09 14:12:42;;;;;;;;;;;7.10;99.90;;;;;;5069717;28;19909;-81